Time;durP1;ratioP1;P1;durP2;ratioP2;P2;SDS_P1;SDS_P2;PMS_P1;PMS_P2;Temp;Humidity;BMP_temperature;BMP_pressure;BME280_temperature;BME280_humidity;BME280_pressure;Samples;Min_cycle;Max_cycle;Signal;HPM_P1;HPM_P2
2023/04/11 00:00:16;;;;;;;;;2.00;2.00;;;;;15.86;64.05;101205.13;5077609;28;45339;-72
2023/04/11 00:02:41;;;;;;;;;2.33;1.67;;;;;15.89;64.14;101205.19;5060812;28;47018;-69
2023/04/11 00:05:07;;;;;;;;;4.00;2.00;;;;;15.88;64.30;101200.78;5077929;28;45489;-69
2023/04/11 00:07:33;;;;;;;;;1.33;1.00;;;;;15.80;63.88;101187.47;5077950;28;45230;-69
2023/04/11 00:09:59;;;;;;;;;1.00;1.00;;;;;15.89;63.37;101195.53;5077887;28;45403;-68
2023/04/11 00:12:24;;;;;;;;;2.33;1.00;;;;;15.93;62.89;101185.94;5077147;28;45461;-68
2023/04/11 00:14:52;;;;;;;;;1.00;1.00;;;;;15.89;62.67;101168.28;5063073;28;45767;-80
2023/04/11 00:17:19;;;;;;;;;1.00;1.00;;;;;15.91;62.57;101174.47;5075510;28;45371;-68
2023/04/11 00:19:45;;;;;;;;;1.00;1.00;;;;;16.00;63.10;101194.84;5052239;28;45422;-68
2023/04/11 00:22:16;;;;;;;;;1.00;1.00;;;;;15.96;63.15;101188.63;5068077;28;46257;-68
2023/04/11 00:24:42;;;;;;;;;1.33;1.00;;;;;16.03;63.07;101194.91;5077390;28;45344;-68
2023/04/11 00:27:07;;;;;;;;;1.67;1.67;;;;;15.87;63.98;101183.19;5076685;28;45484;-68
2023/04/11 00:29:34;;;;;;;;;1.00;1.00;;;;;15.84;64.61;101198.97;5077246;28;45437;-69
2023/04/11 00:32:00;;;;;;;;;2.50;2.00;;;;;15.73;65.13;101192.59;5076494;28;45501;-69
2023/04/11 00:34:26;;;;;;;;;1.00;1.00;;;;;15.63;65.47;101200.25;5061291;28;45403;-69
2023/04/11 00:36:52;;;;;;;;;0.33;0.33;;;;;15.71;65.38;101200.41;5075782;28;45695;-70
2023/04/11 00:39:19;;;;;;;;;1.67;1.00;;;;;15.75;65.33;101196.13;5077035;28;45336;-69
2023/04/11 00:41:45;;;;;;;;;2.00;2.00;;;;;15.79;65.28;101190.06;5076863;28;45505;-69
2023/04/11 00:44:12;;;;;;;;;1.00;1.00;;;;;15.82;64.93;101192.78;5077238;28;45332;-68
2023/04/11 00:46:42;;;;;;;;;0.00;0.00;;;;;15.76;64.79;101164.56;5076899;28;45446;-69
2023/04/11 00:49:09;;;;;;;;;3.33;1.00;;;;;15.91;64.74;101179.75;5077004;28;45560;-68
2023/04/11 00:51:35;;;;;;;;;1.00;1.00;;;;;15.92;64.66;101176.28;5076158;28;46222;-68
2023/04/11 00:54:01;;;;;;;;;1.00;1.00;;;;;15.93;64.90;101179.78;5076589;28;45453;-73
2023/04/11 00:56:30;;;;;;;;;1.00;1.00;;;;;15.94;64.88;101185.09;5077091;28;45505;-74
2023/04/11 00:58:56;;;;;;;;;1.00;1.00;;;;;15.89;65.17;101170.94;5076852;28;45412;-68
2023/04/11 01:01:24;;;;;;;;;0.00;0.00;;;;;15.99;64.98;101177.25;5076827;28;45434;-69
2023/04/11 01:03:49;;;;;;;;;1.00;1.00;;;;;16.03;64.66;101172.06;5076795;28;45311;-69
2023/04/11 01:06:18;;;;;;;;;1.00;1.00;;;;;16.06;64.27;101158.06;5076930;28;45302;-69
2023/04/11 01:08:46;;;;;;;;;2.00;2.00;;;;;16.05;64.24;101154.53;5058823;28;45426;-68
2023/04/11 01:11:15;;;;;;;;;1.00;1.00;;;;;16.06;64.48;101153.69;5076623;28;45642;-68
2023/04/11 01:13:41;;;;;;;;;1.00;1.00;;;;;16.02;64.58;101141.31;5076344;28;45435;-74
2023/04/11 01:16:08;;;;;;;;;1.00;1.00;;;;;15.99;64.99;101143.00;5076930;28;45298;-69
2023/04/11 01:18:35;;;;;;;;;2.00;1.33;;;;;15.99;64.74;101146.50;5076494;28;45560;-68
2023/04/11 01:21:01;;;;;;;;;2.00;2.00;;;;;15.98;64.85;101143.88;5075981;28;46047;-68
2023/04/11 01:23:27;;;;;;;;;1.33;1.33;;;;;16.03;64.75;101136.91;5075723;28;45571;-70
2023/04/11 01:25:53;;;;;;;;;1.00;1.00;;;;;16.03;65.04;101132.53;5076405;28;45348;-68
2023/04/11 01:28:19;;;;;;;;;0.33;0.00;;;;;16.02;64.70;101136.03;5076027;28;45483;-69
2023/04/11 01:30:45;;;;;;;;;2.00;2.00;;;;;16.00;64.99;101132.50;5075843;28;45453;-68
2023/04/11 01:33:12;;;;;;;;;2.00;2.00;;;;;15.94;65.27;101129.75;5041753;28;45462;-69
2023/04/11 01:35:38;;;;;;;;;1.67;1.67;;;;;15.86;66.19;101128.75;5060926;28;45443;-68
2023/04/11 01:38:04;;;;;;;;;1.67;1.67;;;;;15.81;66.04;101140.94;5076393;28;45279;-69
2023/04/11 01:40:31;;;;;;;;;1.00;1.00;;;;;15.84;65.61;101143.63;5076204;28;45612;-69
2023/04/11 01:42:58;;;;;;;;;1.00;1.00;;;;;15.88;65.58;101130.53;5075663;28;45493;-78
2023/04/11 01:45:25;;;;;;;;;0.00;0.00;;;;;15.85;65.56;101143.63;5076054;28;45286;-69
2023/04/11 01:47:53;;;;;;;;;2.00;2.00;;;;;15.81;65.69;101126.00;5075915;28;45711;-69
2023/04/11 01:50:21;;;;;;;;;1.00;0.00;;;;;15.83;65.94;101141.84;5077980;28;45409;-74
2023/04/11 01:52:50;;;;;;;;;1.00;1.00;;;;;15.83;66.32;101150.63;5078844;28;45508;-68
2023/04/11 01:55:16;;;;;;;;;2.00;1.00;;;;;15.67;66.33;101141.50;5061195;28;45474;-68
2023/04/11 01:57:42;;;;;;;;;3.00;1.33;;;;;15.72;66.01;101149.53;5061720;28;45424;-68
2023/04/11 02:00:11;;;;;;;;;0.33;0.33;;;;;15.66;66.03;101152.06;5079567;28;46192;-68
2023/04/11 02:02:37;;;;;;;;;1.67;1.67;;;;;15.66;66.29;101149.41;5059332;28;45489;-68
2023/04/11 02:05:03;;;;;;;;;1.33;1.33;;;;;15.65;65.84;101153.78;5079737;28;45427;-69
2023/04/11 02:07:28;;;;;;;;;1.33;1.00;;;;;15.61;66.44;101148.44;5079366;28;45388;-69
2023/04/11 02:09:55;;;;;;;;;2.00;2.00;;;;;15.55;66.14;101145.69;5079612;28;45341;-69
2023/04/11 02:12:21;;;;;;;;;2.00;2.00;;;;;15.55;66.00;101149.19;5068571;28;45425;-68
2023/04/11 02:14:48;;;;;;;;;1.67;1.00;;;;;15.52;65.84;101141.25;5074405;28;45300;-69
2023/04/11 02:17:13;;;;;;;;;2.00;2.00;;;;;15.51;66.05;101136.81;5078494;28;45371;-69
2023/04/11 02:19:44;;;;;;;;;4.00;2.00;;;;;15.60;65.48;101139.66;5079065;28;46124;-68
2023/04/11 02:22:14;;;;;;;;;2.00;1.00;;;;;15.65;64.87;101130.06;5079237;28;45576;-68
2023/04/11 02:24:40;;;;;;;;;1.67;1.67;;;;;15.75;64.96;101130.28;5079540;28;45224;-69
2023/04/11 02:27:06;;;;;;;;;2.00;2.00;;;;;15.81;64.49;101131.28;5079072;28;45427;-69
2023/04/11 02:29:32;;;;;;;;;2.00;2.00;;;;;15.86;64.88;101123.47;5078915;28;46235;-68
2023/04/11 02:31:58;;;;;;;;;3.00;2.67;;;;;15.81;64.40;101107.56;5078945;28;45541;-68
2023/04/11 02:34:24;;;;;;;;;2.00;2.00;;;;;15.90;64.40;101120.91;5079247;28;45343;-69
2023/04/11 02:36:50;;;;;;;;;3.00;3.00;;;;;15.94;64.35;101110.44;5078959;28;45534;-69
2023/04/11 02:39:15;;;;;;;;;2.00;2.00;;;;;15.99;63.95;101112.25;5078370;28;45618;-72
2023/04/11 02:41:41;;;;;;;;;1.33;1.33;;;;;15.97;64.21;101100.81;5078885;28;45574;-77
2023/04/11 02:44:10;;;;;;;;;3.00;2.00;;;;;16.03;64.45;101114.06;5079141;28;45525;-69
2023/04/11 02:46:35;;;;;;;;;1.67;1.67;;;;;16.01;64.14;101093.84;5059895;28;45384;-68
2023/04/11 02:49:02;;;;;;;;;1.33;1.33;;;;;16.09;64.13;101100.13;5078773;28;45959;-69
2023/04/11 02:51:27;;;;;;;;;2.00;2.00;;;;;16.05;64.06;101099.19;5068097;28;45345;-69
2023/04/11 02:53:53;;;;;;;;;3.00;3.00;;;;;16.06;64.20;101100.97;5073355;28;45341;-68
2023/04/11 02:56:19;;;;;;;;;2.33;2.33;;;;;16.04;64.22;101093.91;5078816;28;45773;-69
2023/04/11 02:58:45;;;;;;;;;2.33;2.00;;;;;16.07;64.34;101102.72;5078835;28;45871;-69
2023/04/11 03:01:13;;;;;;;;;2.67;2.67;;;;;16.07;64.09;101105.34;5078533;28;45330;-70
2023/04/11 03:03:42;;;;;;;;;2.00;2.00;;;;;16.06;64.24;101100.09;5078506;28;45355;-69
2023/04/11 03:06:08;;;;;;;;;2.67;2.67;;;;;16.06;64.27;101106.25;5078309;28;45299;-79
2023/04/11 03:08:34;;;;;;;;;2.00;2.00;;;;;16.00;64.34;101087.69;5060056;28;46237;-69
2023/04/11 03:11:01;;;;;;;;;3.67;3.00;;;;;16.03;64.27;101102.66;5078249;28;45468;-69
2023/04/11 03:13:26;;;;;;;;;2.00;2.00;;;;;16.03;64.74;101103.53;5063503;28;45450;-69
2023/04/11 03:15:52;;;;;;;;;3.00;3.00;;;;;16.03;65.04;101089.47;5077357;28;45232;-69
2023/04/11 03:18:18;;;;;;;;;4.00;3.00;;;;;16.02;64.73;101095.63;5078499;28;45410;-70
2023/04/11 03:20:44;;;;;;;;;2.00;2.00;;;;;16.02;64.66;101093.88;5078406;28;45451;-69
2023/04/11 03:23:09;;;;;;;;;2.00;2.00;;;;;15.96;64.57;101070.06;5078368;28;45299;-69
2023/04/11 03:25:39;;;;;;;;;3.67;3.00;;;;;15.99;64.77;101080.63;5077904;28;45478;-69
2023/04/11 03:28:05;;;;;;;;;3.00;3.00;;;;;15.95;64.83;101070.91;5076984;28;46054;-69
2023/04/11 03:30:31;;;;;;;;;3.33;3.00;;;;;16.05;64.79;101088.63;5077856;28;45383;-69
2023/04/11 03:32:59;;;;;;;;;3.00;2.67;;;;;16.04;65.06;101089.50;5077849;28;45595;-78
2023/04/11 03:35:26;;;;;;;;;2.00;2.00;;;;;16.02;65.11;101085.97;5078280;28;45342;-69
2023/04/11 03:37:52;;;;;;;;;3.33;2.33;;;;;15.96;65.02;101071.81;5077237;28;46198;-69
2023/04/11 03:40:18;;;;;;;;;2.67;2.00;;;;;15.95;65.21;101067.41;5077673;28;45493;-69
2023/04/11 03:42:45;;;;;;;;;3.67;3.00;;;;;16.04;64.69;101083.38;5078319;28;45482;-69
2023/04/11 03:45:11;;;;;;;;;3.67;3.67;;;;;16.01;65.44;101094.72;5078526;28;45536;-69
2023/04/11 03:47:37;;;;;;;;;4.00;3.00;;;;;16.00;65.58;101084.19;5077576;28;45316;-77
2023/04/11 03:50:03;;;;;;;;;3.00;2.00;;;;;16.02;65.46;101090.34;5061843;28;45460;-68
2023/04/11 03:52:28;;;;;;;;;2.67;2.00;;;;;16.04;65.79;101088.63;5059671;28;45401;-79
2023/04/11 03:54:54;;;;;;;;;4.67;4.00;;;;;16.02;66.06;101083.34;5078023;28;45524;-69
2023/04/11 03:57:19;;;;;;;;;3.00;2.67;;;;;15.94;65.81;101079.69;5078339;28;45398;-78
2023/04/11 03:59:46;;;;;;;;;3.00;2.33;;;;;15.94;65.96;101073.53;5077351;28;45579;-78
2023/04/11 04:02:13;;;;;;;;;3.00;3.00;;;;;16.01;65.98;101084.19;5078137;28;45319;-79
2023/04/11 04:04:39;;;;;;;;;2.67;2.67;;;;;15.98;66.17;101083.28;5078197;28;45197;-79
2023/04/11 04:07:05;;;;;;;;;3.00;2.67;;;;;16.03;65.80;101092.13;5077673;28;45998;-70
2023/04/11 04:09:31;;;;;;;;;2.00;2.00;;;;;16.01;66.11;101084.19;5073306;28;45755;-73
2023/04/11 04:11:56;;;;;;;;;3.00;2.00;;;;;16.07;66.17;101091.31;5064628;28;45486;-69
2023/04/11 04:14:22;;;;;;;;;4.00;3.67;;;;;15.97;67.37;101090.25;5078472;28;45465;-69
2023/04/11 04:16:47;;;;;;;;;6.75;6.50;;;;;15.76;67.76;101075.00;5077747;28;46122;-78
2023/04/11 04:19:13;;;;;;;;;4.33;4.00;;;;;15.75;68.21;101085.50;5077176;28;45536;-69
2023/04/11 04:21:38;;;;;;;;;5.00;5.00;;;;;15.72;68.05;101078.41;5077826;28;45556;-68
2023/04/11 04:24:04;;;;;;;;;4.00;3.00;;;;;15.66;68.25;101080.94;5047497;28;45541;-78
2023/04/11 04:26:30;;;;;;;;;3.00;3.00;;;;;15.61;67.97;101075.56;5073275;28;45531;-72
2023/04/11 04:29:04;;;;;;;;;4.33;3.00;;;;;15.57;68.05;101062.31;5077009;28;45585;-69
2023/04/11 04:31:33;;;;;;;;;3.00;3.00;;;;;15.59;68.48;101066.75;5068022;28;45509;-68
2023/04/11 04:34:08;;;;;;;;;3.67;3.67;;;;;15.55;68.69;101071.94;5071364;28;45684;-69
2023/04/11 04:36:48;;;;;;;;;4.00;4.00;;;;;15.55;68.50;101064.94;5078518;28;45390;-69
2023/04/11 04:39:17;;;;;;;;;4.33;3.00;;;;;15.54;67.96;101059.63;5081568;28;45307;-69
2023/04/11 04:41:56;;;;;;;;;3.00;3.00;;;;;15.51;68.80;101066.59;5081650;28;45217;-69
2023/04/11 04:44:23;;;;;;;;;3.75;3.00;;;;;15.41;69.15;101051.50;5082778;28;45387;-69
2023/04/11 04:46:53;;;;;;;;;4.00;4.00;;;;;15.42;69.35;101076.09;5081831;28;45768;-69
2023/04/11 04:49:18;;;;;;;;;2.00;2.00;;;;;15.32;68.71;101060.13;5083523;28;45380;-79
2023/04/11 04:51:44;;;;;;;;;3.33;2.67;;;;;15.35;69.43;101061.94;5078584;28;45228;-69
2023/04/11 04:54:10;;;;;;;;;4.33;4.33;;;;;15.43;69.71;101069.97;5079042;28;45294;-79
2023/04/11 04:56:35;;;;;;;;;4.00;4.00;;;;;15.46;69.47;101083.22;5078072;28;46184;-69
2023/04/11 04:59:01;;;;;;;;;2.00;2.00;;;;;15.42;69.13;101069.09;5078149;28;45499;-78
2023/04/11 05:01:26;;;;;;;;;2.00;2.00;;;;;15.43;69.35;101064.72;5076637;27;45386;-69
2023/04/11 05:03:59;;;;;;;;;4.00;3.00;;;;;15.47;69.44;101061.28;5078404;28;45385;-78
2023/04/11 05:06:28;;;;;;;;;3.33;3.33;;;;;15.50;69.49;101066.59;5078138;28;45252;-79
2023/04/11 05:08:56;;;;;;;;;16.75;14.75;;;;;15.53;68.85;101066.66;5075820;28;45311;-73
2023/04/11 05:11:22;;;;;;;;;14.25;13.50;;;;;15.51;69.19;101058.72;5075537;28;45494;-69
2023/04/11 05:13:48;;;;;;;;;41.00;35.50;;;;;15.47;69.38;101061.28;5056996;28;45576;-69
2023/04/11 05:16:13;;;;;;;;;6.00;5.33;;;;;15.50;68.98;101056.06;5051640;28;45633;-68
2023/04/11 05:18:39;;;;;;;;;4.00;3.67;;;;;15.54;68.85;101049.09;5066816;28;45375;-68
2023/04/11 05:21:04;;;;;;;;;4.00;3.67;;;;;15.53;69.16;101048.22;5077242;28;45303;-78
2023/04/11 05:23:30;;;;;;;;;8.00;7.33;;;;;15.52;69.26;101044.69;5058610;28;45425;-69
2023/04/11 05:25:56;;;;;;;;;44.25;37.00;;;;;15.51;68.99;101045.53;5076695;28;46055;-70
2023/04/11 05:28:21;;;;;;;;;16.75;15.25;;;;;15.49;69.58;101041.13;5075509;28;46540;-78
2023/04/11 05:30:47;;;;;;;;;15.00;13.00;;;;;15.44;69.73;101051.59;5075879;28;45409;-76
2023/04/11 05:33:14;;;;;;;;;14.25;12.75;;;;;15.27;70.58;101039.84;5076133;28;45462;-69
2023/04/11 05:35:40;;;;;;;;;10.00;8.50;;;;;15.36;69.92;101054.91;5076266;28;45530;-79
2023/04/11 05:38:05;;;;;;;;;6.33;5.33;;;;;15.42;69.78;101057.66;5075389;28;45517;-79
2023/04/11 05:40:31;;;;;;;;;4.00;4.00;;;;;15.38;69.78;101040.03;5076502;28;45430;-69
2023/04/11 05:42:57;;;;;;;;;5.00;3.00;;;;;15.45;69.83;101050.72;5076937;28;45440;-69
2023/04/11 05:45:22;;;;;;;;;3.00;3.00;;;;;15.47;69.90;101050.75;5063039;28;45427;-69
2023/04/11 05:47:48;;;;;;;;;3.67;3.67;;;;;15.51;69.55;101045.53;5072352;28;45529;-78
2023/04/11 05:50:14;;;;;;;;;3.75;3.00;;;;;15.56;69.68;101044.75;5076293;28;45399;-69
2023/04/11 05:52:40;;;;;;;;;3.67;3.00;;;;;15.57;69.29;101050.03;5058023;28;45857;-78
2023/04/11 05:55:06;;;;;;;;;3.00;3.00;;;;;15.59;69.69;101045.69;5075918;28;46164;-79
2023/04/11 05:57:31;;;;;;;;;2.67;2.67;;;;;15.60;69.78;101052.75;5075543;28;45533;-77
2023/04/11 06:00:00;;;;;;;;;4.33;3.33;;;;;15.52;70.07;101042.06;5072147;28;45441;-73
2023/04/11 06:02:26;;;;;;;;;3.00;3.00;;;;;15.37;70.28;101027.75;5065165;28;45572;-79
2023/04/11 06:04:52;;;;;;;;;4.67;4.00;;;;;15.35;70.64;101050.53;5075358;28;45483;-69
2023/04/11 06:07:18;;;;;;;;;4.67;4.00;;;;;15.24;71.21;101027.53;5067434;28;45313;-79
2023/04/11 06:09:44;;;;;;;;;5.00;4.00;;;;;15.32;70.86;101036.44;5076060;28;45481;-69
2023/04/11 06:12:09;;;;;;;;;3.00;3.00;;;;;15.20;70.98;101019.53;5076094;28;45480;-79
2023/04/11 06:14:35;;;;;;;;;4.00;4.00;;;;;15.32;70.68;101036.44;5073393;28;45799;-78
2023/04/11 06:17:01;;;;;;;;;1.00;1.00;;;;;15.24;70.80;101019.63;5067989;28;45855;-69
2023/04/11 06:19:26;;;;;;;;;2.33;2.33;;;;;15.34;70.31;101036.47;5070128;28;45370;-78
2023/04/11 06:21:52;;;;;;;;;4.00;3.33;;;;;15.29;70.54;101027.59;5075631;28;45505;-78
2023/04/11 06:24:33;;;;;;;;;4.00;3.00;;;;;15.32;70.83;101041.72;5073909;28;45634;-79
2023/04/11 06:26:59;;;;;;;;;3.00;3.00;;;;;15.20;70.59;101014.25;5075327;28;45319;-68
2023/04/11 06:29:25;;;;;;;;;3.00;2.00;;;;;15.27;71.10;101024.06;5074644;28;45496;-79
2023/04/11 06:31:50;;;;;;;;;4.00;4.00;;;;;15.42;70.63;101026.06;5074602;28;45432;-79
2023/04/11 06:34:16;;;;;;;;;5.00;4.33;;;;;15.55;70.44;101037.72;5074638;28;46121;-70
2023/04/11 06:36:41;;;;;;;;;5.00;4.33;;;;;15.63;70.27;101033.47;5060199;28;46042;-68
2023/04/11 06:39:08;;;;;;;;;4.33;4.33;;;;;15.68;69.89;101024.78;5078352;27;45519;-78
2023/04/11 06:41:35;;;;;;;;;5.50;5.00;;;;;15.72;69.96;101031.00;5074448;28;45347;-76
2023/04/11 06:44:01;;;;;;;;;3.33;3.00;;;;;15.74;69.95;101025.75;5066744;28;45403;-79
2023/04/11 06:46:26;;;;;;;;;5.00;5.00;;;;;15.87;69.58;101031.25;5078396;28;45450;-69
2023/04/11 06:48:52;;;;;;;;;6.00;6.00;;;;;15.86;69.72;101026.00;5078189;28;45540;-79
2023/04/11 06:51:18;;;;;;;;;5.50;5.25;;;;;15.98;69.17;101027.94;5073752;28;45473;-69
2023/04/11 06:53:44;;;;;;;;;4.67;4.33;;;;;16.06;69.09;101028.94;5065497;28;45877;-76
2023/04/11 06:56:09;;;;;;;;;10.50;9.75;;;;;16.13;68.87;101032.53;5077873;28;45477;-70
2023/04/11 06:58:35;;;;;;;;;6.33;6.33;;;;;16.07;69.24;101015.75;5065763;28;45465;-69
2023/04/11 07:01:00;;;;;;;;;7.00;5.00;;;;;16.15;68.78;101033.44;5076973;28;45334;-68
2023/04/11 07:03:26;;;;;;;;;6.00;4.00;;;;;16.21;68.64;101025.63;5074860;27;46186;-72
2023/04/11 07:05:51;;;;;;;;;6.00;5.00;;;;;16.25;68.07;101036.25;5077381;28;45597;-79
2023/04/11 07:08:17;;;;;;;;;4.00;3.00;;;;;16.27;68.37;101037.16;5078143;28;45508;-79
2023/04/11 07:10:43;;;;;;;;;3.33;3.00;;;;;16.34;68.13;101029.34;5077669;28;45609;-77
2023/04/11 07:13:08;;;;;;;;;11.00;8.00;;;;;16.41;67.78;101021.53;5075885;28;45989;-78
2023/04/11 07:15:34;;;;;;;;;10.67;8.00;;;;;16.57;67.59;101027.00;5074646;28;45570;-77
2023/04/11 07:18:00;;;;;;;;;7.67;5.67;;;;;16.61;67.34;101034.09;5077235;27;45454;-76
2023/04/11 07:20:26;;;;;;;;;28.50;27.00;;;;;16.65;67.06;101027.97;5077064;28;45367;-75
2023/04/11 07:22:51;;;;;;;;;8.50;7.25;;;;;16.74;67.19;101020.19;5073330;28;46035;-68
2023/04/11 07:25:21;;;;;;;;;7.75;6.00;;;;;16.92;67.02;101022.19;5077298;28;45600;-79
2023/04/11 07:27:48;;;;;;;;;3.00;3.00;;;;;17.06;66.52;101015.31;5067391;28;45550;-80
2023/04/11 07:30:14;;;;;;;;;6.00;5.00;;;;;17.18;65.91;101013.69;5075131;28;45906;-79
2023/04/11 07:32:40;;;;;;;;;5.33;4.00;;;;;17.22;65.20;101005.78;5064713;28;45394;-78
2023/04/11 07:35:06;;;;;;;;;6.33;4.00;;;;;17.27;64.67;100997.94;5078361;28;45790;-76
2023/04/11 07:37:31;;;;;;;;;6.67;6.33;;;;;17.30;64.37;100998.81;5077978;28;45469;-79
2023/04/11 07:39:57;;;;;;;;;7.00;5.00;;;;;17.46;63.59;100991.94;5064560;28;45410;-81
2023/04/11 07:42:22;;;;;;;;;3.67;3.67;;;;;17.64;63.05;100987.69;5074774;28;45493;-79
2023/04/11 07:44:48;;;;;;;;;3.67;3.00;;;;;17.86;62.44;100987.00;5071514;28;45304;-80
2023/04/11 07:47:13;;;;;;;;;6.00;3.67;;;;;17.99;61.78;100984.47;5066216;28;47140;-82
2023/04/11 07:49:39;;;;;;;;;1.00;1.00;;;;;18.12;60.86;100982.75;5062026;28;45297;-83
2023/04/11 07:52:04;;;;;;;;;3.67;3.33;;;;;18.28;60.88;100984.63;5074615;28;45929;-81
2023/04/11 07:54:30;;;;;;;;;3.67;2.67;;;;;18.26;59.48;100978.44;5066257;28;45469;-82
2023/04/11 07:56:56;;;;;;;;;2.33;2.33;;;;;18.31;60.36;100984.63;5068001;28;45506;-81
2023/04/11 07:59:21;;;;;;;;;2.33;2.33;;;;;18.47;59.60;100989.13;5073737;28;45782;-81
2023/04/11 08:01:47;;;;;;;;;5.67;3.00;;;;;18.62;59.57;100984.75;5075562;28;45487;-82
2023/04/11 08:04:12;;;;;;;;;4.00;4.00;;;;;18.76;59.63;100982.16;5071782;28;45417;-80
2023/04/11 08:06:38;;;;;;;;;3.67;3.33;;;;;18.88;59.36;100969.03;5068883;28;45659;-82
2023/04/11 08:09:04;;;;;;;;;2.67;2.67;;;;;19.02;58.99;100974.31;5077509;28;45429;-76
2023/04/11 08:11:30;;;;;;;;;4.00;4.00;;;;;19.08;58.17;100972.59;5075738;28;46216;-79
2023/04/11 08:13:56;;;;;;;;;3.00;3.00;;;;;19.25;58.15;100975.25;5064129;28;45540;-80
2023/04/11 08:16:21;;;;;;;;;3.00;2.67;;;;;19.47;57.11;100962.03;5076223;28;45418;-79
2023/04/11 08:18:47;;;;;;;;;2.67;2.67;;;;;19.67;56.40;100962.00;5077220;28;45243;-74
2023/04/11 08:21:12;;;;;;;;;3.33;3.00;;;;;19.70;56.54;100950.56;5075844;28;46091;-81
2023/04/11 08:23:38;;;;;;;;;3.00;3.00;;;;;19.71;56.23;100947.00;5054513;28;45550;-80
2023/04/11 08:26:05;;;;;;;;;3.33;3.00;;;;;20.03;54.99;100955.81;5068628;27;45341;-82
2023/04/11 08:28:31;;;;;;;;;5.00;3.33;;;;;20.25;54.42;100947.78;5076906;28;45423;-81
2023/04/11 08:30:57;;;;;;;;;2.00;2.00;;;;;20.73;52.09;100943.19;5076023;28;45886;-80
2023/04/11 08:33:24;;;;;;;;;2.67;2.67;;;;;21.93;51.27;100936.06;5076880;28;45493;-81
2023/04/11 08:35:50;;;;;;;;;5.00;4.00;;;;;22.28;50.03;100914.38;5077132;28;45320;-81
2023/04/11 08:38:16;;;;;;;;;3.00;3.00;;;;;22.89;48.40;100933.09;5046110;28;45383;-73
2023/04/11 08:40:42;;;;;;;;;3.33;3.00;;;;;23.10;47.44;100930.16;5072728;28;46215;-79
2023/04/11 08:43:11;;;;;;;;;4.00;4.00;;;;;23.03;46.99;100921.34;5076084;27;45471;-69
2023/04/11 08:45:39;;;;;;;;;4.33;4.33;;;;;22.84;46.94;100928.72;5058340;28;45395;-77
2023/04/11 08:48:06;;;;;;;;;4.00;3.67;;;;;22.95;47.17;100925.03;5077477;28;45524;-75
2023/04/11 08:50:34;;;;;;;;;5.00;4.33;;;;;23.29;46.78;100920.06;5076160;28;45574;-81
2023/04/11 08:53:03;;;;;;;;;5.00;5.00;;;;;23.80;45.59;100905.88;5076622;28;45477;-71
2023/04/11 08:55:29;;;;;;;;;6.00;5.00;;;;;24.42;45.27;100924.19;5077003;28;45508;-82
2023/04/11 08:57:58;;;;;;;;;6.00;6.00;;;;;24.60;44.58;100905.13;5076577;28;45441;-81
2023/04/11 09:00:25;;;;;;;;;5.67;5.00;;;;;24.91;44.04;100915.13;5076080;28;45589;-82
2023/04/11 09:02:55;;;;;;;;;4.00;3.67;;;;;25.11;42.05;100905.72;5076370;28;45213;-72
2023/04/11 09:05:26;;;;;;;;;7.33;5.67;;;;;25.30;41.63;100901.69;5076441;28;45498;-82
2023/04/11 09:07:51;;;;;;;;;4.33;4.33;;;;;26.29;40.54;100896.38;5076641;28;45512;-83
2023/04/11 09:10:21;;;;;;;;;4.33;4.00;;;;;26.88;37.86;100882.03;5072402;28;45595;-84
2023/04/11 09:12:46;;;;;;;;;2.00;2.00;;;;;27.39;37.35;100892.00;5064304;28;45509;-78
2023/04/11 09:15:23;;;;;;;;;3.00;3.00;;;;;27.51;37.38;100885.34;5076417;28;45596;-80
2023/04/11 09:17:49;;;;;;;;;2.33;2.33;;;;;27.87;35.64;100883.16;5041766;28;45394;-84
2023/04/11 09:20:19;;;;;;;;;2.33;2.00;;;;;27.79;35.09;100879.84;5076247;28;46207;-84
2023/04/11 09:22:48;;;;;;;;;2.33;2.00;;;;;28.26;34.32;100893.34;5076310;27;45552;-84
2023/04/11 09:25:13;;;;;;;;;2.00;2.00;;;;;28.89;35.07;100871.22;5075768;28;45355;-83
2023/04/11 09:27:39;;;;;;;;;3.33;2.33;;;;;29.73;34.50;100880.25;5075738;28;45467;-80
2023/04/11 09:30:15;;;;;;;;;1.33;1.00;;;;;30.32;31.54;100856.88;5075521;28;45541;-82
2023/04/11 09:32:42;;;;;;;;;1.00;1.00;;;;;30.32;32.04;100855.09;5076115;28;45702;-70
2023/04/11 09:35:22;;;;;;;;;1.00;0.00;;;;;30.59;31.20;100852.00;5076683;28;45303;-83
2023/04/11 09:37:56;;;;;;;;;2.00;1.67;;;;;31.26;29.64;100855.00;5076456;28;45385;-74
2023/04/11 09:40:25;;;;;;;;;0.67;0.67;;;;;30.87;29.85;100840.72;5075564;28;45373;-80
2023/04/11 09:42:59;;;;;;;;;1.00;1.00;;;;;31.21;31.35;100839.03;5075378;28;45461;-81
2023/04/11 09:45:25;;;;;;;;;0.00;0.00;;;;;31.85;29.18;100836.59;5074546;28;45332;-79
2023/04/11 09:47:55;;;;;;;;;0.00;0.00;;;;;31.78;29.85;100841.47;5074943;28;45467;-82
2023/04/11 09:50:22;;;;;;;;;1.67;1.67;;;;;32.08;29.12;100833.53;5056489;28;45575;-80
2023/04/11 09:52:48;;;;;;;;;1.00;1.00;;;;;32.00;29.04;100834.91;5075874;28;45378;-82
2023/04/11 09:55:17;;;;;;;;;0.67;0.67;;;;;31.64;29.01;100823.31;5080482;28;45229;-82
2023/04/11 09:57:52;;;;;;;;;1.00;1.00;;;;;31.45;29.89;100822.53;5082068;28;45552;-70
2023/04/11 10:00:20;;;;;;;;;1.00;1.00;;;;;31.29;29.54;100812.50;5076482;28;45448;-78
2023/04/11 10:02:48;;;;;;;;;2.00;1.00;;;;;31.26;29.85;100815.38;5074856;28;45462;-71
2023/04/11 10:05:17;;;;;;;;;1.00;1.00;;;;;30.87;29.89;100802.09;5074846;28;45494;-68
2023/04/11 10:07:51;;;;;;;;;0.00;0.00;;;;;30.84;29.84;100811.22;5063401;28;45522;-78
2023/04/11 10:10:19;;;;;;;;;1.67;1.00;;;;;31.02;30.12;100808.53;5075607;28;45492;-73
2023/04/11 10:12:45;;;;;;;;;0.33;0.33;;;;;30.85;29.21;100806.69;5082784;28;45490;-69
2023/04/11 10:15:11;;;;;;;;;2.67;1.67;;;;;31.11;29.06;100808.06;5088224;27;45535;-80
2023/04/11 10:17:38;;;;;;;;;0.00;0.00;;;;;31.32;29.83;100809.66;5090612;28;45436;-78
2023/04/11 10:20:41;;;;;;;;;0.00;0.00;;;;;31.21;28.55;100770.69;5087249;27;45916;-80
2023/04/11 10:23:07;;;;;;;;;0.00;0.00;;;;;31.18;29.39;100796.03;5078781;28;45379;-76
2023/04/11 10:25:54;;;;;;;;;1.00;0.67;;;;;31.40;29.06;100792.19;5078375;27;45421;-81
2023/04/11 10:28:30;;;;;;;;;0.67;0.67;;;;;31.28;28.73;100758.63;5080062;28;45244;-81
2023/04/11 10:31:04;;;;;;;;;0.00;0.00;;;;;31.79;28.66;100801.81;5079014;28;46210;-80
2023/04/11 10:33:31;;;;;;;;;2.00;1.33;;;;;31.49;29.12;100797.13;5065159;28;45407;-82
2023/04/11 10:36:04;;;;;;;;;1.33;0.67;;;;;31.77;28.03;100801.03;5079224;28;45284;-83
2023/04/11 10:38:43;;;;;;;;;0.00;0.00;;;;;32.04;29.13;100796.84;5075837;28;45362;-82
2023/04/11 10:41:32;;;;;;;;;0.67;0.67;;;;;31.91;27.19;100809.25;5073334;28;46088;-83
2023/04/11 10:44:23;;;;;;;;;1.00;1.00;;;;;31.24;28.36;100808.34;5076403;28;45544;-78
2023/04/11 10:46:52;;;;;;;;;0.00;0.00;;;;;30.37;29.31;100806.34;5077021;27;45410;-74
2023/04/11 10:49:38;;;;;;;;;0.00;0.00;;;;;29.78;30.13;100808.19;5073783;28;45448;-79
2023/04/11 10:52:21;;;;;;;;;0.00;0.00;;;;;29.70;30.31;100786.09;5070728;28;46041;-71
2023/04/11 10:54:49;;;;;;;;;1.33;0.67;;;;;29.37;30.10;100794.75;5062276;28;45719;-69
2023/04/11 10:57:15;;;;;;;;;1.00;1.00;;;;;29.17;31.27;100794.75;5079726;27;45501;-68
2023/04/11 10:59:43;;;;;;;;;0.00;0.00;;;;;29.19;31.85;100793.75;5078895;28;45389;-81
2023/04/11 11:02:09;;;;;;;;;0.00;0.00;;;;;29.28;31.87;100790.66;5079407;27;45599;-69
2023/04/11 11:04:36;;;;;;;;;1.33;0.33;;;;;29.31;32.03;100781.59;5078638;28;45406;-73
2023/04/11 11:07:04;;;;;;;;;1.00;1.00;;;;;29.62;31.39;100766.72;5079063;28;45469;-70
2023/04/11 11:09:31;;;;;;;;;2.00;1.00;;;;;29.76;31.17;100753.53;5079042;28;45446;-84
2023/04/11 11:12:14;;;;;;;;;0.67;0.67;;;;;29.63;31.01;100753.22;5078015;28;46168;-74
2023/04/11 11:14:42;;;;;;;;;2.67;2.67;;;;;29.52;31.89;100747.44;5077993;28;45386;-81
2023/04/11 11:17:08;;;;;;;;;3.00;1.67;;;;;29.57;32.04;100740.03;5078365;28;45323;-78
2023/04/11 11:19:34;;;;;;;;;2.00;1.00;;;;;29.50;32.07;100730.47;5077938;28;45489;-73
2023/04/11 11:22:02;;;;;;;;;0.33;0.33;;;;;29.27;31.56;100707.34;5078641;28;45509;-72
2023/04/11 11:24:29;;;;;;;;;2.67;1.67;;;;;29.54;31.91;100719.53;5078033;28;45414;-72